Stringtown, Illinois
Current Conditions -  °F | °C
As of 3:35 PM on Wednesday 26 Nov 2014 (Local Time) from KENL Reporting Station
Light Snow Light Snow  
Wind Chill: 33°   Ceiling: 700
Heat Index: 33°   Visibility: 1.2mi
Dew Point: 31°   Wind: 3mph
Humidity: 91%   Direction: 100°E
Pressure: 30.02"   Gusts: NA
Location:  38.8463°N, 89.0894°W
Report Text: KENL 262135Z AUTO 10003KT 1 1/4SM -SN BKN007 OVC014 01/M01 A3002 RMK AO2 T00061007
Loading
Personal Weather Stations






























Interactive Weather Map New forecast layout! Learn more

10-Day Weather Forecast

Advertisements
Track Severe Weather on mobile